Time;durP1;ratioP1;P1;durP2;ratioP2;P2;SDS_P1;SDS_P2;PMS_P1;PMS_P2;Temp;Humidity;BMP_temperature;BMP_pressure;BME280_temperature;BME280_humidity;BME280_pressure;Samples;Min_cycle;Max_cycle;Signal;HPM_P1;HPM_P2
2021/04/18 00:01:23;;;;;;;20.38;8.82;;;6.90;99.90;;;;;;5073512;28;20027;-61
2021/04/18 00:03:49;;;;;;;20.45;8.68;;;6.90;99.90;;;;;;5073381;28;20021;-61
2021/04/18 00:06:16;;;;;;;20.58;9.65;;;6.90;99.90;;;;;;5073157;28;20021;-61
2021/04/18 00:08:42;;;;;;;19.05;9.23;;;6.90;99.90;;;;;;5072975;28;20024;-61
2021/04/18 00:11:08;;;;;;;20.75;9.15;;;6.90;99.90;;;;;;5073357;28;20516;-61
2021/04/18 00:13:33;;;;;;;15.82;9.77;;;6.80;99.90;;;;;;5072225;28;20036;-61
2021/04/18 00:15:59;;;;;;;22.05;10.10;;;6.80;99.90;;;;;;5073526;28;20071;-61
2021/04/18 00:18:24;;;;;;;18.42;9.80;;;6.80;99.90;;;;;;5073281;28;20465;-61
2021/04/18 00:20:50;;;;;;;24.98;10.55;;;6.80;99.90;;;;;;5072817;28;20029;-61
2021/04/18 00:23:16;;;;;;;26.50;11.30;;;6.80;99.90;;;;;;5072677;28;20104;-61
2021/04/18 00:25:41;;;;;;;25.25;11.25;;;6.80;99.90;;;;;;5072774;28;20063;-61
2021/04/18 00:28:07;;;;;;;22.30;11.88;;;6.80;99.90;;;;;;5072933;28;20027;-61
2021/04/18 00:30:33;;;;;;;21.83;11.00;;;6.70;99.90;;;;;;5072785;28;20025;-61
2021/04/18 00:32:59;;;;;;;23.90;12.55;;;6.80;99.90;;;;;;5072279;28;20028;-61
2021/04/18 00:35:24;;;;;;;23.80;12.60;;;6.70;99.90;;;;;;5072986;28;20112;-61
2021/04/18 00:37:50;;;;;;;26.02;12.93;;;6.70;99.90;;;;;;5072781;28;20048;-61
2021/04/18 00:40:19;;;;;;;29.50;12.07;;;6.70;99.90;;;;;;5072243;28;20025;-61
2021/04/18 00:42:45;;;;;;;20.33;12.15;;;6.70;99.90;;;;;;5072601;28;20461;-61
2021/04/18 00:45:12;;;;;;;28.25;13.45;;;6.70;99.90;;;;;;5072500;28;20027;-61
2021/04/18 00:47:43;;;;;;;22.42;12.75;;;6.70;99.90;;;;;;5072729;28;20016;-61
2021/04/18 00:50:11;;;;;;;25.00;12.52;;;6.80;99.90;;;;;;5072702;28;20029;-61
2021/04/18 00:52:37;;;;;;;23.83;12.85;;;6.70;99.90;;;;;;5072422;28;20034;-61
2021/04/18 00:55:05;;;;;;;22.27;12.23;;;6.70;99.90;;;;;;5070619;28;20025;-61
2021/04/18 00:57:31;;;;;;;27.30;13.90;;;6.60;99.90;;;;;;5070681;28;20056;-61
2021/04/18 01:00:05;;;;;;;25.45;13.18;;;6.60;99.90;;;;;;5072122;28;20029;-61
2021/04/18 01:02:30;;;;;;;25.75;13.27;;;6.60;99.90;;;;;;5070899;28;20386;-61
2021/04/18 01:04:56;;;;;;;26.52;14.07;;;6.60;99.90;;;;;;5070539;28;20020;-61
2021/04/18 01:07:21;;;;;;;25.20;13.52;;;6.50;99.90;;;;;;5072460;28;20035;-61
2021/04/18 01:09:47;;;;;;;25.92;13.25;;;6.50;99.90;;;;;;5072439;28;20496;-61
2021/04/18 01:12:13;;;;;;;25.50;13.23;;;6.50;99.90;;;;;;5072241;28;20024;-61
2021/04/18 01:14:39;;;;;;;28.58;14.07;;;6.40;99.90;;;;;;5072137;28;20024;-61
2021/04/18 01:17:04;;;;;;;25.58;13.45;;;6.40;99.90;;;;;;5072210;28;20036;-61
2021/04/18 01:19:30;;;;;;;26.35;14.30;;;6.40;99.90;;;;;;5071830;28;20052;-61
2021/04/18 01:21:56;;;;;;;24.98;13.77;;;6.40;99.90;;;;;;5071724;28;20064;-61
2021/04/18 01:24:21;;;;;;;27.25;14.02;;;6.30;99.90;;;;;;5071947;28;20472;-61
2021/04/18 01:26:47;;;;;;;28.77;13.65;;;6.30;99.90;;;;;;5071910;28;20028;-61
2021/04/18 01:29:13;;;;;;;26.67;13.68;;;6.30;99.90;;;;;;5071998;28;20116;-61
2021/04/18 01:31:38;;;;;;;29.83;14.52;;;6.30;99.90;;;;;;5071783;28;20032;-61
2021/04/18 01:34:04;;;;;;;28.88;13.15;;;6.30;99.90;;;;;;5070234;28;20062;-61
2021/04/18 01:36:30;;;;;;;27.50;14.27;;;6.30;99.90;;;;;;5070412;28;20492;-61
2021/04/18 01:38:56;;;;;;;31.00;13.85;;;6.30;99.90;;;;;;5071471;28;20033;-61
2021/04/18 01:41:21;;;;;;;27.42;14.68;;;6.20;99.90;;;;;;5070378;28;20109;-61
2021/04/18 01:43:47;;;;;;;27.92;14.25;;;6.20;99.90;;;;;;5070011;28;20021;-61
2021/04/18 01:46:13;;;;;;;23.05;13.68;;;6.20;99.90;;;;;;5070745;28;20054;-61
2021/04/18 01:48:39;;;;;;;30.25;15.05;;;6.10;99.90;;;;;;5071548;28;20081;-61
2021/04/18 01:51:09;;;;;;;34.42;14.65;;;6.10;99.90;;;;;;5071936;28;20021;-61
2021/04/18 01:53:35;;;;;;;24.75;14.73;;;6.10;99.90;;;;;;5071467;28;20024;-61
2021/04/18 01:56:02;;;;;;;28.05;14.70;;;6.10;99.90;;;;;;5070343;28;20056;-61
2021/04/18 01:58:28;;;;;;;28.83;13.98;;;6.00;99.90;;;;;;5071116;28;20528;-61
2021/04/18 02:00:53;;;;;;;27.90;15.35;;;6.10;99.90;;;;;;5071522;28;20054;-61
2021/04/18 02:03:19;;;;;;;34.30;15.30;;;6.10;99.90;;;;;;5071463;28;20366;-61
2021/04/18 02:05:44;;;;;;;35.47;15.90;;;6.10;99.90;;;;;;5070373;28;20116;-61
2021/04/18 02:08:10;;;;;;;31.80;15.02;;;6.10;99.90;;;;;;5070262;28;20029;-61
2021/04/18 02:10:36;;;;;;;32.97;16.08;;;6.10;99.90;;;;;;5071386;28;20025;-61
2021/04/18 02:13:02;;;;;;;30.70;15.27;;;6.10;99.90;;;;;;5069865;28;20033;-61
2021/04/18 02:15:27;;;;;;;32.88;14.57;;;6.10;99.90;;;;;;5071596;28;20025;-61
2021/04/18 02:17:53;;;;;;;25.48;14.32;;;6.10;99.90;;;;;;5071946;28;20099;-61
2021/04/18 02:20:19;;;;;;;27.63;14.45;;;6.00;99.90;;;;;;5071485;28;20100;-61
2021/04/18 02:22:45;;;;;;;26.80;14.25;;;6.00;99.90;;;;;;5071300;28;20090;-61
2021/04/18 02:25:12;;;;;;;26.70;14.27;;;6.00;99.90;;;;;;5071450;28;20459;-61
2021/04/18 02:27:38;;;;;;;36.38;15.98;;;6.00;99.90;;;;;;5070056;28;20078;-61
2021/04/18 02:30:05;;;;;;;28.08;14.82;;;6.00;99.90;;;;;;5070707;28;20021;-61
2021/04/18 02:32:31;;;;;;;26.40;15.82;;;6.00;99.90;;;;;;5070510;28;20028;-61
2021/04/18 02:34:56;;;;;;;24.08;14.77;;;6.00;99.90;;;;;;5070570;28;20032;-61
2021/04/18 02:37:22;;;;;;;24.30;14.80;;;6.00;99.90;;;;;;5070731;28;20389;-61
2021/04/18 02:39:47;;;;;;;30.67;16.05;;;5.90;99.90;;;;;;5070978;28;20454;-61
2021/04/18 02:42:13;;;;;;;30.73;16.17;;;5.90;99.90;;;;;;5071039;28;20084;-61
2021/04/18 02:44:39;;;;;;;33.38;16.05;;;5.90;99.90;;;;;;5069692;28;20044;-61
2021/04/18 02:47:05;;;;;;;26.10;15.07;;;5.90;99.90;;;;;;5071115;28;20056;-61
2021/04/18 02:49:30;;;;;;;31.80;15.88;;;5.90;99.90;;;;;;5070384;28;20404;-61
2021/04/18 02:51:56;;;;;;;24.30;14.60;;;5.90;99.90;;;;;;5070608;28;20027;-61
2021/04/18 02:54:22;;;;;;;32.65;15.63;;;5.90;99.90;;;;;;5069824;28;20119;-61
2021/04/18 02:56:48;;;;;;;27.10;15.23;;;5.80;99.90;;;;;;5074205;28;20076;-61
2021/04/18 02:59:13;;;;;;;28.85;15.02;;;5.80;99.90;;;;;;5074782;28;20056;-61
2021/04/18 03:01:39;;;;;;;32.63;15.48;;;5.80;99.90;;;;;;5074435;28;20075;-61
2021/04/18 03:04:05;;;;;;;28.42;14.90;;;5.80;99.90;;;;;;5074399;28;20101;-61
2021/04/18 03:06:30;;;;;;;27.50;14.65;;;5.80;99.90;;;;;;5074257;28;20101;-61
2021/04/18 03:08:56;;;;;;;26.83;15.55;;;5.80;99.90;;;;;;5073203;28;20063;-61
2021/04/18 03:11:22;;;;;;;24.33;14.98;;;5.80;99.90;;;;;;5074462;28;20546;-61
2021/04/18 03:13:48;;;;;;;29.40;15.15;;;5.80;99.90;;;;;;5074529;28;20099;-61
2021/04/18 03:16:14;;;;;;;28.38;15.50;;;5.80;99.90;;;;;;5073068;28;20117;-61
2021/04/18 03:18:40;;;;;;;32.97;15.40;;;5.80;99.90;;;;;;5072480;28;20025;-61
2021/04/18 03:21:06;;;;;;;29.42;14.45;;;5.90;99.90;;;;;;5073775;28;20047;-61
2021/04/18 03:23:32;;;;;;;27.30;14.10;;;5.80;99.90;;;;;;5073926;28;20558;-61
2021/04/18 03:25:58;;;;;;;33.45;15.82;;;5.80;99.90;;;;;;5073914;28;20051;-61
2021/04/18 03:28:23;;;;;;;28.85;15.85;;;5.90;99.90;;;;;;5073603;28;20028;-61
2021/04/18 03:30:50;;;;;;;27.80;15.57;;;5.90;99.90;;;;;;5074930;28;20534;-61
2021/04/18 03:33:16;;;;;;;27.25;14.63;;;5.90;99.90;;;;;;5073885;28;20067;-61
2021/04/18 03:35:41;;;;;;;23.58;14.27;;;5.80;99.90;;;;;;5073728;28;20017;-61
2021/04/18 03:38:09;;;;;;;27.45;14.05;;;5.80;99.90;;;;;;5073870;28;20032;-61
2021/04/18 03:40:35;;;;;;;26.48;14.23;;;5.70;99.90;;;;;;5073736;28;20028;-61
2021/04/18 03:43:01;;;;;;;37.72;15.52;;;5.60;99.90;;;;;;5072823;28;20024;-61
2021/04/18 03:45:27;;;;;;;30.70;15.20;;;5.60;99.90;;;;;;5073707;28;20093;-61
2021/04/18 03:47:52;;;;;;;29.48;15.93;;;5.70;99.90;;;;;;5073736;28;20477;-61
2021/04/18 03:50:18;;;;;;;25.98;16.08;;;5.70;99.90;;;;;;5073495;28;20020;-61
2021/04/18 03:52:44;;;;;;;30.95;15.20;;;5.70;99.90;;;;;;5073133;28;20062;-61
2021/04/18 03:55:11;;;;;;;29.40;14.95;;;5.70;99.90;;;;;;5073012;28;20378;-61
2021/04/18 03:57:37;;;;;;;28.77;15.20;;;5.60;99.90;;;;;;5072909;28;20123;-61
2021/04/18 04:00:05;;;;;;;27.40;14.63;;;5.60;99.90;;;;;;5073334;28;20094;-61
2021/04/18 04:02:31;;;;;;;27.05;15.30;;;5.60;99.90;;;;;;5072950;28;20151;-61
2021/04/18 04:04:56;;;;;;;32.83;16.73;;;5.60;99.90;;;;;;5072958;28;20055;-61
2021/04/18 04:07:22;;;;;;;33.08;17.23;;;5.60;99.90;;;;;;5071464;28;20032;-61
2021/04/18 04:09:47;;;;;;;26.33;16.63;;;5.70;99.90;;;;;;5072851;28;20651;-61
2021/04/18 04:12:13;;;;;;;31.38;16.83;;;5.70;99.90;;;;;;5072891;28;20325;-61
2021/04/18 04:14:39;;;;;;;35.00;16.88;;;5.70;99.90;;;;;;5071551;28;20047;-61
2021/04/18 04:17:04;;;;;;;38.10;18.08;;;5.70;99.90;;;;;;5072895;28;20392;-61
2021/04/18 04:19:30;;;;;;;30.48;17.30;;;5.70;99.90;;;;;;5072455;28;20095;-61
2021/04/18 04:21:56;;;;;;;38.45;18.10;;;5.80;99.90;;;;;;5072663;28;20029;-61
2021/04/18 04:24:21;;;;;;;29.25;16.58;;;5.70;99.90;;;;;;5071340;28;20021;-61
2021/04/18 04:26:47;;;;;;;30.92;15.27;;;5.70;99.90;;;;;;5071271;28;20020;-61
2021/04/18 04:29:12;;;;;;;31.27;16.25;;;5.60;99.90;;;;;;5072535;28;20020;-61
2021/04/18 04:31:38;;;;;;;31.60;17.45;;;5.60;99.90;;;;;;5072528;28;20502;-61
2021/04/18 04:34:04;;;;;;;30.65;16.92;;;5.60;99.90;;;;;;5070707;28;20389;-61
2021/04/18 04:36:29;;;;;;;30.63;17.02;;;5.50;99.90;;;;;;5072497;28;20583;-61
2021/04/18 04:38:55;;;;;;;43.00;19.02;;;5.50;99.90;;;;;;5072472;28;20048;-61
2021/04/18 04:41:24;;;;;;;33.83;18.05;;;5.60;99.90;;;;;;5071896;28;20508;-61
2021/04/18 04:43:49;;;;;;;29.85;17.52;;;5.60;99.90;;;;;;5072402;28;20500;-61
2021/04/18 04:46:15;;;;;;;34.92;17.63;;;5.60;99.90;;;;;;5071262;28;20104;-63
2021/04/18 04:48:41;;;;;;;30.33;18.80;;;5.50;99.90;;;;;;5071134;28;20025;-61
2021/04/18 04:51:07;;;;;;;35.75;19.83;;;5.50;99.90;;;;;;5072537;28;20027;-61
2021/04/18 04:53:33;;;;;;;37.83;21.60;;;5.50;99.90;;;;;;5071970;28;20024;-61
2021/04/18 04:55:59;;;;;;;33.33;20.73;;;5.50;99.90;;;;;;5071736;28;20163;-61
2021/04/18 04:58:24;;;;;;;34.20;20.13;;;5.50;99.90;;;;;;5071871;28;20424;-61
2021/04/18 05:00:52;;;;;;;35.15;21.75;;;5.50;99.90;;;;;;5070395;28;20256;-61
2021/04/18 05:03:18;;;;;;;33.60;20.40;;;5.50;99.90;;;;;;5071724;28;20036;-61
2021/04/18 05:05:44;;;;;;;33.63;19.52;;;5.60;99.90;;;;;;5072111;28;20029;-61
2021/04/18 05:08:10;;;;;;;34.30;20.90;;;5.50;99.90;;;;;;5072037;28;20071;-61
2021/04/18 05:10:35;;;;;;;36.28;20.67;;;5.50;99.90;;;;;;5071810;28;20048;-61
2021/04/18 05:13:01;;;;;;;30.23;19.90;;;5.50;99.90;;;;;;5071931;28;20027;-61
2021/04/18 05:15:29;;;;;;;31.55;20.05;;;5.50;99.90;;;;;;5071655;28;20480;-61
2021/04/18 05:17:55;;;;;;;35.53;21.08;;;5.50;99.90;;;;;;5071349;28;20461;-61
2021/04/18 05:20:24;;;;;;;32.13;19.33;;;5.50;99.90;;;;;;5071697;28;20025;-61
2021/04/18 05:22:50;;;;;;;33.58;19.63;;;5.50;99.90;;;;;;5071527;28;20062;-61
2021/04/18 05:25:15;;;;;;;40.05;19.42;;;5.50;99.90;;;;;;5071293;28;20048;-61
2021/04/18 05:27:42;;;;;;;34.20;19.35;;;5.60;99.90;;;;;;5070862;28;20461;-61
2021/04/18 05:30:09;;;;;;;31.45;19.85;;;5.60;99.90;;;;;;5070888;28;20025;-61
2021/04/18 05:32:36;;;;;;;33.35;19.77;;;5.60;99.90;;;;;;5071210;28;20033;-61
2021/04/18 05:35:02;;;;;;;34.60;20.02;;;5.70;99.90;;;;;;5071100;28;20023;-61
2021/04/18 05:37:28;;;;;;;32.35;20.13;;;5.80;99.90;;;;;;5071408;28;20029;-61
2021/04/18 05:39:54;;;;;;;33.03;17.95;;;5.80;99.90;;;;;;5071120;28;20366;-61
2021/04/18 05:42:20;;;;;;;28.13;18.27;;;5.80;99.90;;;;;;5071195;28;20021;-61
2021/04/18 05:44:45;;;;;;;30.02;18.48;;;5.90;99.90;;;;;;5053389;28;20032;-61
2021/04/18 05:47:11;;;;;;;37.67;18.10;;;6.00;99.90;;;;;;5071325;28;20029;-61
2021/04/18 05:49:36;;;;;;;32.92;19.30;;;6.00;99.90;;;;;;5071087;28;20032;-61
2021/04/18 05:52:02;;;;;;;29.85;18.30;;;6.10;99.90;;;;;;5070901;28;20044;-62
2021/04/18 05:54:28;;;;;;;32.22;19.17;;;6.20;99.90;;;;;;5071060;28;20566;-61
2021/04/18 05:56:54;;;;;;;31.20;17.77;;;6.20;99.90;;;;;;5070793;28;20072;-61
2021/04/18 05:59:19;;;;;;;31.15;17.08;;;6.30;99.90;;;;;;5071180;28;20212;-62
2021/04/18 06:01:45;;;;;;;33.83;17.80;;;6.40;99.90;;;;;;5070949;28;20028;-62
2021/04/18 06:04:11;;;;;;;30.08;17.45;;;6.50;99.90;;;;;;5069367;28;20120;-62
2021/04/18 06:06:36;;;;;;;31.60;18.45;;;6.60;99.90;;;;;;5070996;28;20358;-62
2021/04/18 06:09:02;;;;;;;32.08;17.17;;;6.80;99.90;;;;;;5070959;28;20028;-62
2021/04/18 06:11:28;;;;;;;33.20;18.40;;;6.80;99.90;;;;;;5069480;28;20115;-62
2021/04/18 06:13:53;;;;;;;27.55;17.23;;;6.90;99.90;;;;;;5069592;28;20092;-61
2021/04/18 06:16:19;;;;;;;32.67;18.00;;;6.80;99.90;;;;;;5069525;28;20028;-61
2021/04/18 06:18:45;;;;;;;28.23;18.17;;;6.80;99.90;;;;;;5069902;28;20020;-61
2021/04/18 06:21:11;;;;;;;26.15;16.88;;;6.90;99.90;;;;;;5070607;28;20033;-61
2021/04/18 06:23:36;;;;;;;30.67;19.35;;;6.80;99.90;;;;;;5070661;28;20047;-61
2021/04/18 06:26:02;;;;;;;31.40;19.00;;;6.80;99.90;;;;;;5070934;28;20385;-61
2021/04/18 06:28:27;;;;;;;30.00;18.40;;;6.80;99.90;;;;;;5070638;28;20078;-62
2021/04/18 06:30:53;;;;;;;29.73;18.45;;;6.70;99.90;;;;;;5073665;28;20044;-62
2021/04/18 06:33:19;;;;;;;33.30;18.00;;;6.70;99.90;;;;;;5074817;28;20070;-62
2021/04/18 06:35:45;;;;;;;29.05;17.88;;;6.60;99.90;;;;;;5074585;28;20028;-62
2021/04/18 06:38:12;;;;;;;33.85;19.08;;;6.70;99.90;;;;;;5074693;28;20413;-62
2021/04/18 06:40:38;;;;;;;28.90;19.08;;;6.90;99.90;;;;;;5074334;28;20645;-61
2021/04/18 06:43:08;;;;;;;29.38;17.52;;;6.90;99.90;;;;;;5074324;28;20057;-62
2021/04/18 06:45:34;;;;;;;28.85;16.70;;;7.00;99.90;;;;;;5074371;28;20055;-62
2021/04/18 06:48:00;;;;;;;22.65;15.85;;;7.20;99.90;;;;;;5075139;28;20074;-62
2021/04/18 06:50:26;;;;;;;23.15;15.65;;;7.30;99.90;;;;;;5073555;28;20116;-62
2021/04/18 06:52:52;;;;;;;25.30;15.77;;;7.60;99.90;;;;;;5074835;28;20063;-62
2021/04/18 06:55:18;;;;;;;34.70;16.65;;;7.80;99.90;;;;;;5074544;28;20028;-62
2021/04/18 06:57:44;;;;;;;30.52;16.50;;;8.10;99.90;;;;;;5074124;28;20045;-61
2021/04/18 07:00:11;;;;;;;28.63;15.43;;;8.20;99.90;;;;;;5072801;28;20476;-61
2021/04/18 07:02:38;;;;;;;25.77;16.73;;;8.20;99.90;;;;;;5073611;28;20048;-61
2021/04/18 07:05:07;;;;;;;31.58;17.63;;;8.30;99.90;;;;;;5073879;28;20102;-61
2021/04/18 07:07:40;;;;;;;35.10;18.38;;;8.20;99.90;;;;;;5073828;28;20111;-61
2021/04/18 07:10:12;;;;;;;41.28;20.08;;;8.20;99.90;;;;;;5074342;28;20013;-61
2021/04/18 07:12:37;;;;;;;39.42;20.23;;;8.10;99.90;;;;;;5073901;28;20374;-61
2021/04/18 07:15:04;;;;;;;34.17;19.00;;;8.30;99.90;;;;;;5072395;28;20384;-61
2021/04/18 07:17:30;;;;;;;30.13;18.10;;;8.40;99.90;;;;;;5074387;28;20505;-61
2021/04/18 07:20:09;;;;;;;30.75;18.27;;;8.60;99.90;;;;;;5073815;28;20029;-61
2021/04/18 07:22:34;;;;;;;29.77;15.30;;;9.40;99.90;;;;;;5073380;28;20032;-61
2021/04/18 07:25:00;;;;;;;26.52;15.00;;;10.50;99.90;;;;;;5073206;28;20020;-62
2021/04/18 07:27:42;;;;;;;25.17;13.55;;;11.90;99.90;;;;;;5073026;28;20094;-61
2021/04/18 07:30:08;;;;;;;21.85;12.90;;;13.70;99.90;;;;;;5073150;28;20016;-61
2021/04/18 07:32:34;;;;;;;20.77;12.65;;;13.90;99.90;;;;;;5072973;28;20304;-61
2021/04/18 07:35:00;;;;;;;26.27;13.02;;;14.50;99.90;;;;;;5073340;28;20035;-61
2021/04/18 07:37:27;;;;;;;20.40;11.93;;;15.50;99.90;;;;;;5071917;28;20024;-62
2021/04/18 07:39:58;;;;;;;21.75;12.00;;;16.20;99.90;;;;;;5073237;28;20044;-62
2021/04/18 07:42:41;;;;;;;21.38;12.52;;;16.80;99.20;;;;;;5072698;28;20057;-62
2021/04/18 07:45:11;;;;;;;;;;;16.80;97.30;;;;;;5073504;28;20032;-62
2021/04/18 07:47:39;;;;;;;22.63;13.02;;;16.20;98.00;;;;;;5073000;28;19973;-62
2021/04/18 07:50:07;;;;;;;23.95;12.77;;;16.10;97.00;;;;;;5072526;28;20024;-62
2021/04/18 07:52:35;;;;;;;21.17;12.18;;;16.10;96.90;;;;;;5073107;28;20453;-62
2021/04/18 07:55:01;;;;;;;19.27;10.55;;;16.80;94.50;;;;;;5071507;28;20469;-62
2021/04/18 07:57:27;;;;;;;20.38;9.98;;;16.90;92.30;;;;;;5072555;28;20071;-62
2021/04/18 07:59:53;;;;;;;21.85;10.30;;;16.80;90.30;;;;;;5072830;28;20473;-63
2021/04/18 08:02:20;;;;;;;16.27;9.40;;;16.50;89.70;;;;;;5072469;28;20484;-62
2021/04/18 08:04:50;;;;;;;21.05;10.57;;;16.50;85.90;;;;;;5072269;28;20408;-62
2021/04/18 08:07:16;;;;;;;20.23;9.90;;;16.60;87.10;;;;;;5072485;28;20027;-62
2021/04/18 08:09:41;;;;;;;19.23;10.77;;;16.70;85.80;;;;;;5072420;28;20028;-62
2021/04/18 08:12:18;;;;;;;17.75;10.70;;;16.80;84.30;;;;;;5072275;28;20034;-62
2021/04/18 08:14:45;;;;;;;19.27;10.55;;;16.60;86.00;;;;;;5072332;28;20366;-62
2021/04/18 08:17:18;;;;;;;19.05;10.95;;;16.80;83.30;;;;;;5072323;28;20046;-62
2021/04/18 08:19:54;;;;;;;20.25;10.23;;;16.90;80.00;;;;;;5072105;28;20033;-62
2021/04/18 08:22:20;;;;;;;17.90;10.85;;;16.80;81.30;;;;;;5071905;28;20489;-62
2021/04/18 08:24:46;;;;;;;18.33;10.07;;;16.60;81.50;;;;;;5072185;28;20027;-62
2021/04/18 08:27:12;;;;;;;19.25;10.15;;;16.90;81.20;;;;;;5071681;28;20025;-62
2021/04/18 08:30:04;;;;;;;19.58;10.30;;;16.90;80.90;;;;;;5070538;28;20028;-62
2021/04/18 08:32:47;;;;;;;20.27;9.32;;;17.40;79.10;;;;;;5071854;28;20043;-62
2021/04/18 08:35:17;;;;;;;14.68;8.10;;;17.70;76.10;;;;;;5071882;28;20452;-62
2021/04/18 08:37:42;;;;;;;15.07;8.85;;;17.90;71.80;;;;;;5072180;28;20040;-62
2021/04/18 08:40:08;;;;;;;14.45;8.82;;;17.60;73.00;;;;;;5071786;28;20024;-62
2021/04/18 08:42:34;;;;;;;16.50;8.90;;;17.80;71.10;;;;;;5071641;28;20052;-62
2021/04/18 08:45:01;;;;;;;14.93;8.30;;;18.10;70.10;;;;;;5068238;28;20025;-63
2021/04/18 08:47:28;;;;;;;12.43;7.95;;;17.80;67.90;;;;;;5052095;28;20025;-63
2021/04/18 08:50:06;;;;;;;16.60;8.75;;;17.60;67.60;;;;;;5053086;28;20379;-63
2021/04/18 08:52:34;;;;;;;16.35;8.43;;;17.60;68.90;;;;;;5050843;28;20021;-63
2021/04/18 08:55:10;;;;;;;16.30;9.20;;;18.20;67.70;;;;;;5051529;28;20504;-63
2021/04/18 08:57:36;;;;;;;19.98;8.93;;;18.70;65.40;;;;;;5051495;28;20071;-63
2021/04/18 09:00:15;;;;;;;15.63;8.25;;;18.90;63.80;;;;;;5067716;28;20329;-63
2021/04/18 09:02:41;;;;;;;14.95;7.57;;;18.50;63.20;;;;;;5071209;28;20027;-63
2021/04/18 09:05:15;;;;;;;16.80;7.05;;;18.20;61.70;;;;;;5071308;28;20050;-63
2021/04/18 09:07:43;;;;;;;16.30;7.43;;;18.30;58.90;;;;;;5071428;28;20092;-63
2021/04/18 09:10:10;;;;;;;12.07;6.53;;;18.40;58.70;;;;;;5071576;28;20024;-63
2021/04/18 09:12:37;;;;;;;14.27;7.20;;;18.80;58.10;;;;;;5071147;28;20029;-63
2021/04/18 09:15:04;;;;;;;14.25;8.00;;;18.40;58.70;;;;;;5071287;28;20078;-63
2021/04/18 09:17:31;;;;;;;12.82;8.15;;;18.90;57.90;;;;;;5062965;28;20098;-63
2021/04/18 09:20:05;;;;;;;11.10;6.85;;;18.70;57.70;;;;;;5051643;28;20036;-64
2021/04/18 09:22:39;;;;;;;14.10;7.72;;;19.00;56.80;;;;;;5051077;28;20032;-64
2021/04/18 09:25:09;;;;;;;11.48;7.43;;;19.10;56.00;;;;;;5053684;28;20032;-63
2021/04/18 09:27:43;;;;;;;14.95;7.68;;;19.20;55.60;;;;;;5062589;28;20515;-63
2021/04/18 09:30:11;;;;;;;14.18;7.97;;;19.80;54.30;;;;;;5058738;28;20017;-63
2021/04/18 09:32:39;;;;;;;13.65;7.43;;;19.60;54.50;;;;;;5051749;28;20078;-64
2021/04/18 09:35:08;;;;;;;15.27;7.25;;;18.80;54.70;;;;;;5051321;28;20021;-64
2021/04/18 09:37:38;;;;;;;18.23;7.22;;;19.20;53.70;;;;;;5059948;28;20116;-63
2021/04/18 09:40:09;;;;;;;10.65;7.00;;;19.90;53.00;;;;;;5055684;28;20486;-63
2021/04/18 09:42:38;;;;;;;12.90;8.00;;;19.80;51.80;;;;;;5053896;28;20123;-63
2021/04/18 09:45:16;;;;;;;10.95;6.68;;;19.70;51.50;;;;;;5061653;28;20275;-63
2021/04/18 09:47:47;;;;;;;12.77;6.70;;;19.50;52.40;;;;;;5069776;28;20479;-63
2021/04/18 09:50:33;;;;;;;14.00;6.57;;;19.50;53.10;;;;;;5055263;28;20036;-63
2021/04/18 09:53:26;;;;;;;9.75;6.60;;;19.90;51.90;;;;;;5059589;28;20032;-63
2021/04/18 09:56:06;;;;;;;13.85;6.03;;;19.40;51.20;;;;;;5051211;28;20056;-63
2021/04/18 09:58:35;;;;;;;12.25;6.05;;;19.30;52.00;;;;;;5049646;28;20079;-63
2021/04/18 10:01:01;;;;;;;15.55;5.53;;;19.10;50.50;;;;;;5050764;28;20101;-63
2021/04/18 10:03:38;;;;;;;8.90;5.22;;;20.00;49.10;;;;;;5050422;28;20111;-63
2021/04/18 10:06:04;;;;;;;9.10;5.28;;;19.90;48.70;;;;;;5072287;28;20377;-63
2021/04/18 10:08:33;;;;;;;8.70;4.45;;;20.00;48.70;;;;;;5069635;28;20126;-64
2021/04/18 10:11:18;;;;;;;9.15;5.05;;;20.40;46.30;;;;;;5070099;28;20021;-64
2021/04/18 10:13:50;;;;;;;9.45;4.20;;;20.10;46.00;;;;;;5068505;28;20099;-64
2021/04/18 10:16:18;;;;;;;8.43;4.40;;;19.20;46.20;;;;;;5084915;28;20048;-64
2021/04/18 10:19:24;;;;;;;11.55;4.40;;;18.80;48.40;;;;;;5080591;28;20415;-64
2021/04/18 10:22:03;;;;;;;12.80;4.85;;;19.50;46.40;;;;;;5092124;28;20024;-63
2021/04/18 10:24:33;;;;;;;9.07;4.47;;;20.10;46.30;;;;;;5100757;28;20473;-63
2021/04/18 10:27:04;;;;;;;10.10;4.28;;;19.80;45.90;;;;;;5099194;28;20032;-64
2021/04/18 10:29:30;;;;;;;7.65;4.75;;;20.60;45.50;;;;;;5083359;28;20047;-64
2021/04/18 10:31:56;;;;;;;10.60;4.60;;;20.20;45.30;;;;;;5087694;28;20464;-64
2021/04/18 10:34:22;;;;;;;9.23;4.60;;;21.10;45.40;;;;;;5090422;28;20027;-64
2021/04/18 10:36:48;;;;;;;7.63;4.03;;;21.20;44.40;;;;;;5080973;28;20115;-64
2021/04/18 10:39:17;;;;;;;8.13;4.65;;;20.50;45.50;;;;;;5077589;28;20095;-63
2021/04/18 10:41:44;;;;;;;9.88;4.55;;;20.80;45.50;;;;;;5068567;28;20144;-64
2021/04/18 10:44:15;;;;;;;8.60;4.18;;;20.90;44.80;;;;;;5071846;28;20107;-64
2021/04/18 10:46:41;;;;;;;10.90;4.90;;;20.90;44.40;;;;;;5069736;28;20032;-63
2021/04/18 10:49:07;;;;;;;11.00;4.60;;;20.40;44.70;;;;;;5068910;28;20469;-64
2021/04/18 10:51:32;;;;;;;8.18;4.93;;;20.00;44.90;;;;;;5086371;28;20024;-64
2021/04/18 10:53:58;;;;;;;7.60;4.13;;;20.30;44.90;;;;;;5080016;28;20032;-63
2021/04/18 10:56:23;;;;;;;5.72;4.10;;;21.00;44.40;;;;;;5076902;28;20043;-63
2021/04/18 10:58:49;;;;;;;7.75;4.22;;;20.90;43.20;;;;;;5066932;28;20060;-64
2021/04/18 11:01:14;;;;;;;8.35;4.70;;;21.00;42.60;;;;;;5068317;28;20024;-63
2021/04/18 11:03:40;;;;;;;8.43;4.45;;;20.70;44.00;;;;;;5068840;28;20654;-64
2021/04/18 11:06:06;;;;;;;8.98;4.53;;;20.60;44.50;;;;;;5090790;28;20020;-64
2021/04/18 11:08:35;;;;;;;10.52;4.93;;;20.00;44.60;;;;;;5068979;28;20051;-63
2021/04/18 11:11:00;;;;;;;6.22;4.45;;;19.80;46.50;;;;;;5087962;28;20571;-63
2021/04/18 11:13:26;;;;;;;10.60;4.90;;;20.00;45.50;;;;;;5089517;28;20028;-64
2021/04/18 11:15:52;;;;;;;7.70;4.63;;;20.00;44.70;;;;;;5067547;28;20082;-64
2021/04/18 11:18:17;;;;;;;10.27;4.70;;;20.70;44.50;;;;;;5091080;28;20047;-63
2021/04/18 11:20:43;;;;;;;8.20;4.72;;;21.60;43.50;;;;;;5080930;28;20020;-64
2021/04/18 11:23:11;;;;;;;8.63;4.60;;;21.60;42.00;;;;;;5085046;28;20380;-64
2021/04/18 11:25:37;;;;;;;7.72;4.53;;;22.00;42.60;;;;;;5088506;28;20114;-64
2021/04/18 11:28:06;;;;;;;11.60;5.00;;;21.90;41.90;;;;;;5066135;28;20040;-64
2021/04/18 11:30:31;;;;;;;7.75;4.32;;;21.70;41.30;;;;;;5080397;28;20020;-64
2021/04/18 11:32:57;;;;;;;7.13;4.63;;;21.30;42.80;;;;;;5086968;28;20024;-64
2021/04/18 11:35:23;;;;;;;9.85;5.20;;;21.70;41.70;;;;;;5073208;28;20041;-64
2021/04/18 11:37:50;;;;;;;11.25;5.95;;;21.40;40.70;;;;;;5071057;28;20388;-64
2021/04/18 11:40:15;;;;;;;9.23;5.28;;;22.00;41.60;;;;;;5072321;28;20027;-63
2021/04/18 11:42:42;;;;;;;10.48;6.40;;;21.10;41.80;;;;;;5072463;28;20032;-63
2021/04/18 11:45:08;;;;;;;9.27;5.40;;;20.80;43.40;;;;;;5072689;28;20024;-64
2021/04/18 11:47:34;;;;;;;11.90;5.18;;;21.40;43.10;;;;;;5071427;28;20031;-64
2021/04/18 11:50:00;;;;;;;8.70;4.93;;;21.30;42.20;;;;;;5073360;28;20025;-64
2021/04/18 11:52:25;;;;;;;10.15;5.18;;;22.00;41.50;;;;;;5071087;28;20029;-64
2021/04/18 11:54:51;;;;;;;12.43;5.20;;;20.80;43.20;;;;;;5072944;28;20389;-63
2021/04/18 11:57:17;;;;;;;8.27;5.03;;;21.20;43.50;;;;;;5073065;28;20051;-63
2021/04/18 11:59:42;;;;;;;9.63;5.05;;;21.80;41.70;;;;;;5073193;28;20056;-63
2021/04/18 12:02:11;;;;;;;12.63;5.15;;;22.20;41.60;;;;;;5071774;28;20111;-64
2021/04/18 12:04:36;;;;;;;10.02;4.82;;;22.80;41.00;;;;;;5073100;28;20020;-64
2021/04/18 12:07:02;;;;;;;9.38;5.05;;;22.80;40.40;;;;;;5073079;28;20020;-63
2021/04/18 12:09:29;;;;;;;7.65;5.25;;;22.60;40.50;;;;;;5072852;28;20025;-63
2021/04/18 12:11:55;;;;;;;6.85;4.32;;;22.40;39.90;;;;;;5072824;28;20384;-64
2021/04/18 12:14:20;;;;;;;9.70;5.47;;;23.00;39.90;;;;;;5072653;28;20025;-64
2021/04/18 12:16:46;;;;;;;9.38;4.95;;;23.50;38.30;;;;;;5072879;28;20028;-64
2021/04/18 12:19:11;;;;;;;8.13;4.97;;;23.50;38.20;;;;;;5072571;28;20421;-64
2021/04/18 12:21:37;;;;;;;8.57;4.78;;;23.60;37.90;;;;;;5072714;28;20024;-64
2021/04/18 12:24:04;;;;;;;9.90;5.43;;;23.40;37.10;;;;;;5072250;28;20028;-64
2021/04/18 12:26:30;;;;;;;11.02;5.05;;;23.30;38.40;;;;;;5072009;28;20039;-64
2021/04/18 12:28:56;;;;;;;8.60;4.50;;;23.00;38.20;;;;;;5070127;28;20028;-64
2021/04/18 12:31:22;;;;;;;8.55;5.35;;;22.10;39.60;;;;;;5072273;28;20020;-63
2021/04/18 12:33:47;;;;;;;8.77;4.78;;;22.10;40.10;;;;;;5072438;28;20029;-63
2021/04/18 12:36:16;;;;;;;10.63;5.10;;;21.90;40.50;;;;;;5072857;28;20032;-63
2021/04/18 12:38:45;;;;;;;7.95;4.80;;;22.70;39.10;;;;;;5072567;28;20039;-63